Time;durP1;ratioP1;P1;durP2;ratioP2;P2;SDS_P1;SDS_P2;PMS_P1;PMS_P2;Temp;Humidity;BMP_temperature;BMP_pressure;BME280_temperature;BME280_humidity;BME280_pressure;Samples;Min_cycle;Max_cycle;Signal;HPM_P1;HPM_P2
2023/07/06 00:02:03;;;;;;;;;;;13.30;99.90;;;;;;4976287;28;20331;-42
2023/07/06 00:04:31;;;;;;;;;;;13.30;99.90;;;;;;4988703;28;19933;-42
2023/07/06 00:06:58;;;;;;;;;;;13.30;99.90;;;;;;4976467;28;19937;-42
2023/07/06 00:09:24;;;;;;;;;;;13.30;99.90;;;;;;4995267;28;19932;-42
2023/07/06 00:11:51;;;;;;;;;;;13.30;99.90;;;;;;4986523;28;19933;-42
2023/07/06 00:14:18;;;;;;;;;;;13.30;99.90;;;;;;4973336;28;19926;-42
2023/07/06 00:16:46;;;;;;;;;;;13.30;99.90;;;;;;4991796;28;19932;-42
2023/07/06 00:19:18;;;;;;;;;;;13.30;99.90;;;;;;4985482;28;19930;-42
2023/07/06 00:21:49;;;;;;;;;;;13.30;99.90;;;;;;4957813;28;19949;-43
2023/07/06 00:24:15;;;;;;;;;;;13.20;99.90;;;;;;4986956;28;19933;-43
2023/07/06 00:26:43;;;;;;;;;;;13.20;99.90;;;;;;4990827;28;19949;-42
2023/07/06 00:29:09;;;;;;;;;;;13.20;99.90;;;;;;4978482;28;20000;-42
2023/07/06 00:31:50;;;;;;;;;;;13.20;99.90;;;;;;4975474;28;19933;-42
2023/07/06 00:34:18;;;;;;;;;;;13.20;99.90;;;;;;4992523;28;19937;-43
2023/07/06 00:36:47;;;;;;;;;;;13.20;99.90;;;;;;4987238;28;20370;-43
2023/07/06 00:39:13;;;;;;;;;;;13.20;99.90;;;;;;4974258;28;19926;-42
2023/07/06 00:41:40;;;;;;;;;;;13.20;99.90;;;;;;4975442;28;20366;-42
2023/07/06 00:44:22;;;;;;;;;;;13.10;99.90;;;;;;4991489;28;19925;-43
2023/07/06 00:46:48;;;;;;;;;;;13.10;99.90;;;;;;4991385;28;19933;-43
2023/07/06 00:49:16;;;;;;;;;;;13.10;99.90;;;;;;4984805;28;19926;-43
2023/07/06 00:51:44;;;;;;;;;;;13.10;99.90;;;;;;4962691;28;20437;-42
2023/07/06 00:54:12;;;;;;;;;;;13.10;99.90;;;;;;4980664;28;19975;-43
2023/07/06 00:56:40;;;;;;;;;;;13.10;99.90;;;;;;4990618;28;19930;-43
2023/07/06 00:59:07;;;;;;;;;;;13.10;99.90;;;;;;4992152;28;19933;-42
2023/07/06 01:01:34;;;;;;;;;;;13.00;99.90;;;;;;4975523;28;19930;-43
2023/07/06 01:04:01;;;;;;;;;;;13.00;99.90;;;;;;4971599;28;19926;-43
2023/07/06 01:06:29;;;;;;;;;;;13.00;99.90;;;;;;4973118;28;20393;-42
2023/07/06 01:08:55;;;;;;;;;;;13.00;99.90;;;;;;4977127;28;19948;-42
2023/07/06 01:11:24;;;;;;;;;;;13.00;99.90;;;;;;4976552;28;19926;-42
2023/07/06 01:13:51;;;;;;;;;;;13.00;99.90;;;;;;5007602;28;19933;-43
2023/07/06 01:16:21;;;;;;;;;;;13.00;99.90;;;;;;4991056;28;20396;-42
2023/07/06 01:18:48;;;;;;;;;;;12.90;99.90;;;;;;4990260;28;19948;-42
2023/07/06 01:21:16;;;;;;;;;;;12.90;99.90;;;;;;4968711;28;19933;-42
2023/07/06 01:24:00;;;;;;;;;;;12.90;99.90;;;;;;4973733;28;19964;-43
2023/07/06 01:26:36;;;;;;;;;;;12.90;99.90;;;;;;4991716;28;19925;-43
2023/07/06 01:29:25;;;;;;;;;;;12.80;99.90;;;;;;4991084;28;19977;-42
2023/07/06 01:31:55;;;;;;;;;;;12.80;99.90;;;;;;4973389;28;19933;-43
2023/07/06 01:34:24;;;;;;;;;;;12.90;99.90;;;;;;4984644;28;19933;-42
2023/07/06 01:36:52;;;;;;;;;;;12.80;99.90;;;;;;4984865;28;20363;-43
2023/07/06 01:39:20;;;;;;;;;;;12.80;99.90;;;;;;4988288;28;19929;-42
2023/07/06 01:41:47;;;;;;;;;;;12.80;99.90;;;;;;4972386;28;20013;-42
2023/07/06 01:44:14;;;;;;;;;;;12.80;99.90;;;;;;5001601;28;20127;-42
2023/07/06 01:46:43;;;;;;;;;;;12.80;99.90;;;;;;4994834;28;19930;-42
2023/07/06 01:49:11;;;;;;;;;;;12.80;99.90;;;;;;4980606;28;19926;-42
2023/07/06 01:51:39;;;;;;;;;;;12.70;99.90;;;;;;4976416;28;20310;-42
2023/07/06 01:54:07;;;;;;;;;;;12.70;99.90;;;;;;4975536;28;19927;-43
2023/07/06 01:56:35;;;;;;;;;;;12.70;99.90;;;;;;4987905;28;19926;-43
2023/07/06 01:59:02;;;;;;;;;;;12.70;99.90;;;;;;4978252;28;19945;-43
2023/07/06 02:01:29;;;;;;;;;;;12.70;99.90;;;;;;4978219;28;19926;-42
2023/07/06 02:03:56;;;;;;;;;;;12.70;99.90;;;;;;4971739;28;19934;-42
2023/07/06 02:06:24;;;;;;;;;;;12.70;99.90;;;;;;4973193;28;19927;-43
2023/07/06 02:08:51;;;;;;;;;;;12.70;99.90;;;;;;4976406;28;20362;-43
2023/07/06 02:11:19;;;;;;;;;;;12.70;99.90;;;;;;4984467;28;19926;-42
2023/07/06 02:13:46;;;;;;;;;;;12.70;99.90;;;;;;4988230;28;19930;-43
2023/07/06 02:16:15;;;;;;;;;;;12.60;99.90;;;;;;4991982;28;19937;-43
2023/07/06 02:18:42;;;;;;;;;;;12.60;99.90;;;;;;4974542;28;19930;-42
2023/07/06 02:21:09;;;;;;;;;;;12.60;99.90;;;;;;4985401;28;19977;-43
2023/07/06 02:23:37;;;;;;;;;;;12.60;99.90;;;;;;4989015;28;19926;-42
2023/07/06 02:26:04;;;;;;;;;;;12.60;99.90;;;;;;4993761;28;19980;-42
2023/07/06 02:28:30;;;;;;;;;;;12.60;99.90;;;;;;4978497;28;19926;-43
2023/07/06 02:30:58;;;;;;;;;;;12.60;99.90;;;;;;4977612;28;19949;-42
2023/07/06 02:33:25;;;;;;;;;;;12.60;99.90;;;;;;4975323;28;19926;-43
2023/07/06 02:35:52;;;;;;;;;;;12.60;99.90;;;;;;4984544;28;19932;-43
2023/07/06 02:38:19;;;;;;;;;;;12.60;99.90;;;;;;4988562;28;19930;-42
2023/07/06 02:40:48;;;;;;;;;;;12.60;99.90;;;;;;4989574;28;19926;-43
2023/07/06 02:43:15;;;;;;;;;;;12.60;99.90;;;;;;4989668;28;19981;-43
2023/07/06 02:45:41;;;;;;;;;;;12.60;99.90;;;;;;4994347;28;19941;-43
2023/07/06 02:48:08;;;;;;;;;;;12.60;99.90;;;;;;4981566;28;19926;-43
2023/07/06 02:50:36;;;;;;;;;;;12.60;99.90;;;;;;4974987;28;19930;-42
2023/07/06 02:53:03;;;;;;;;;;;12.60;99.90;;;;;;4983575;28;19934;-43
2023/07/06 02:55:32;;;;;;;;;;;12.50;99.90;;;;;;4979842;28;19926;-43
2023/07/06 02:58:02;;;;;;;;;;;12.50;99.90;;;;;;4982033;28;19984;-42
2023/07/06 03:00:29;;;;;;;;;;;12.50;99.90;;;;;;4975753;28;19930;-42
2023/07/06 03:02:56;;;;;;;;;;;12.50;99.90;;;;;;4993967;28;20304;-43
2023/07/06 03:05:23;;;;;;;;;;;12.50;99.90;;;;;;4994465;28;19977;-42
2023/07/06 03:07:51;;;;;;;;;;;12.50;99.90;;;;;;4984461;28;19973;-43
2023/07/06 03:10:19;;;;;;;;;;;12.50;99.90;;;;;;4968783;28;19926;-43
2023/07/06 03:12:48;;;;;;;;;;;12.50;99.90;;;;;;4974180;28;19980;-42
2023/07/06 03:15:16;;;;;;;;;;;12.50;99.90;;;;;;4975608;28;19996;-42
2023/07/06 03:17:48;;;;;;;;;;;12.50;99.90;;;;;;4973769;28;19926;-43
2023/07/06 03:20:15;;;;;;;;;;;12.50;99.90;;;;;;4973215;28;19933;-43
2023/07/06 03:22:44;;;;;;;;;;;12.50;99.90;;;;;;4973994;28;19949;-42
2023/07/06 03:25:11;;;;;;;;;;;12.50;99.90;;;;;;4959409;28;20298;-43
2023/07/06 03:27:38;;;;;;;;;;;12.50;99.90;;;;;;4970116;28;19926;-43
2023/07/06 03:30:07;;;;;;;;;;;12.50;99.90;;;;;;4955730;28;19927;-43
2023/07/06 03:32:37;;;;;;;;;;;12.50;99.90;;;;;;4956282;28;19930;-42
2023/07/06 03:35:04;;;;;;;;;;;12.50;99.90;;;;;;4965706;28;20017;-43
2023/07/06 03:37:31;;;;;;;;;;;12.50;99.90;;;;;;4973742;28;19926;-42
2023/07/06 03:39:58;;;;;;;;;;;12.50;99.90;;;;;;4968827;28;19930;-43
2023/07/06 03:42:25;;;;;;;;;;;12.50;99.90;;;;;;4954740;28;20367;-42
2023/07/06 03:44:55;;;;;;;;;;;12.50;99.90;;;;;;4973562;28;19930;-42
2023/07/06 03:47:23;;;;;;;;;;;12.50;99.90;;;;;;4972757;28;19926;-42
2023/07/06 03:49:52;;;;;;;;;;;12.50;99.90;;;;;;4967582;28;19980;-43
2023/07/06 03:52:18;;;;;;;;;;;12.50;99.90;;;;;;4966741;28;19926;-42
2023/07/06 03:54:46;;;;;;;;;;;12.50;99.90;;;;;;4955065;28;19937;-42
2023/07/06 03:57:12;;;;;;;;;;;12.50;99.90;;;;;;4968348;28;20329;-42
2023/07/06 03:59:39;;;;;;;;;;;12.50;99.90;;;;;;4956971;28;20025;-43
2023/07/06 04:02:06;;;;;;;;;;;12.50;99.90;;;;;;4971798;28;19993;-43
2023/07/06 04:04:33;;;;;;;;;;;12.60;99.90;;;;;;4969071;28;19977;-43
2023/07/06 04:07:01;;;;;;;;;;;12.60;99.90;;;;;;4962078;28;19994;-43
2023/07/06 04:09:29;;;;;;;;;;;12.60;99.90;;;;;;4972323;28;19933;-42
2023/07/06 04:11:55;;;;;;;;;;;12.60;99.90;;;;;;4991771;28;19926;-43
2023/07/06 04:14:24;;;;;;;;;;;12.60;99.90;;;;;;4975898;28;19954;-43
2023/07/06 04:16:51;;;;;;;;;;;12.70;99.90;;;;;;4973181;28;20013;-43
2023/07/06 04:19:17;;;;;;;;;;;12.70;99.90;;;;;;4991974;28;19926;-43
2023/07/06 04:21:44;;;;;;;;;;;12.70;99.90;;;;;;4992951;28;20345;-42
2023/07/06 04:24:12;;;;;;;;;;;12.70;99.90;;;;;;4993141;28;19933;-43
2023/07/06 05:41:32;;;;;;;;;;;14.20;99.90;;;;;;4942832;23;19973;-43
2023/07/06 05:43:58;;;;;;;;;;;14.30;99.90;;;;;;5023058;28;20380;-44
2023/07/06 05:46:25;;;;;;;;;;;14.40;99.90;;;;;;5032276;28;19924;-43
2023/07/06 05:48:52;;;;;;;;;;;14.50;99.90;;;;;;5032103;28;19959;-43
2023/07/06 05:51:19;;;;;;;;;;;14.70;99.90;;;;;;5050157;28;19925;-44
2023/07/06 05:53:48;;;;;;;;;;;14.80;99.90;;;;;;5033147;28;19960;-43
2023/07/06 05:56:15;;;;;;;;;;;14.90;99.90;;;;;;5023439;28;19925;-43
2023/07/06 05:58:44;;;;;;;;;;;15.00;99.90;;;;;;5015330;28;20053;-43
2023/07/06 06:01:11;;;;;;;;;;;15.10;99.90;;;;;;5009154;28;20020;-43
2023/07/06 06:03:40;;;;;;;;;;;15.20;99.90;;;;;;5012816;28;19925;-44
2023/07/06 06:06:07;;;;;;;;;;;15.30;99.90;;;;;;5014325;28;19925;-43
2023/07/06 06:08:33;;;;;;;;;;;15.40;99.90;;;;;;4999172;28;19979;-43
2023/07/06 06:11:00;;;;;;;;;;;15.50;99.90;;;;;;5007666;28;20302;-43
2023/07/06 06:13:28;;;;;;;;;;;15.70;99.90;;;;;;5024420;28;19981;-42
2023/07/06 06:15:57;;;;;;;;;;;15.80;99.90;;;;;;5010168;28;19976;-44
2023/07/06 06:18:24;;;;;;;;;;;15.80;99.90;;;;;;5026239;28;19968;-43
2023/07/06 06:20:51;;;;;;;;;;;15.90;99.90;;;;;;5000441;28;19932;-42
2023/07/06 06:23:20;;;;;;;;;;;16.10;99.90;;;;;;5011698;28;20008;-44
2023/07/06 06:25:47;;;;;;;;;;;16.20;99.90;;;;;;5023805;28;20365;-43
2023/07/06 06:28:14;;;;;;;;;;;16.30;99.90;;;;;;5009478;28;19930;-43
2023/07/06 06:30:40;;;;;;;;;;;16.40;99.90;;;;;;5011873;28;19929;-43
2023/07/06 06:33:09;;;;;;;;;;;16.50;99.90;;;;;;5029369;28;19925;-43
2023/07/06 06:35:36;;;;;;;;;;;16.60;99.90;;;;;;5016683;28;20376;-44
2023/07/06 06:38:05;;;;;;;;;;;16.70;99.90;;;;;;5026868;28;19933;-43
2023/07/06 06:40:32;;;;;;;;;;;16.80;99.90;;;;;;5032963;28;19925;-43
2023/07/06 06:43:00;;;;;;;;;;;16.90;99.90;;;;;;5010678;28;20032;-43
2023/07/06 06:45:27;;;;;;;;;;;17.00;99.90;;;;;;5013804;28;19979;-42
2023/07/06 06:47:53;;;;;;;;;;;17.10;99.90;;;;;;5015547;28;19960;-43
2023/07/06 06:50:21;;;;;;;;;;;17.20;99.90;;;;;;5015534;28;19932;-43
2023/07/06 06:52:48;;;;;;;;;;;17.40;99.90;;;;;;5015459;28;19925;-43
2023/07/06 06:55:16;;;;;;;;;;;17.50;99.90;;;;;;5032831;28;19932;-44
2023/07/06 06:57:42;;;;;;;;;;;17.60;99.90;;;;;;5015311;28;19925;-43
2023/07/06 07:00:13;;;;;;;;;;;17.80;99.90;;;;;;5032798;28;19925;-44
2023/07/06 07:02:40;;;;;;;;;;;17.90;99.90;;;;;;5032665;28;19925;-43
2023/07/06 07:05:07;;;;;;;;;;;18.00;99.90;;;;;;5031781;28;19925;-43
2023/07/06 07:07:38;;;;;;;;;;;18.10;99.90;;;;;;5032288;28;19941;-44
2023/07/06 07:10:05;;;;;;;;;;;18.30;99.90;;;;;;5026198;28;19934;-43
2023/07/06 07:12:31;;;;;;;;;;;18.40;99.90;;;;;;5013142;28;20362;-44
2023/07/06 07:14:58;;;;;;;;;;;18.50;99.90;;;;;;5032520;28;19932;-44
2023/07/06 07:17:27;;;;;;;;;;;18.60;99.90;;;;;;5032527;28;19936;-44
2023/07/06 07:19:53;;;;;;;;;;;18.60;99.90;;;;;;5032335;28;20373;-44
2023/07/06 07:22:21;;;;;;;;;;;18.60;99.90;;;;;;5032170;28;19968;-44
2023/07/06 07:24:49;;;;;;;;;;;18.60;99.90;;;;;;5032134;28;19936;-44
2023/07/06 07:27:16;;;;;;;;;;;18.70;99.90;;;;;;5014553;28;19929;-43
2023/07/06 07:29:43;;;;;;;;;;;18.70;99.90;;;;;;5014760;28;19969;-44
2023/07/06 07:32:10;;;;;;;;;;;18.80;99.90;;;;;;5014747;28;19925;-43
2023/07/06 07:34:37;;;;;;;;;;;18.80;99.90;;;;;;5032083;28;19947;-44
2023/07/06 07:37:07;;;;;;;;;;;18.80;99.90;;;;;;5031884;28;20377;-44
2023/07/06 07:39:33;;;;;;;;;;;18.90;99.90;;;;;;5032398;28;19987;-44
2023/07/06 07:42:02;;;;;;;;;;;18.90;99.90;;;;;;5029337;28;19928;-44
2023/07/06 07:44:28;;;;;;;;;;;19.10;99.90;;;;;;5020735;28;19998;-43
2023/07/06 07:46:55;;;;;;;;;;;19.30;99.90;;;;;;5003632;28;20041;-43
2023/07/06 07:49:22;;;;;;;;;;;19.50;99.90;;;;;;5006652;28;19932;-42
2023/07/06 07:51:48;;;;;;;;;;;19.70;99.90;;;;;;5030956;28;19925;-44
2023/07/06 07:54:15;;;;;;;;;;;19.90;99.90;;;;;;5025500;28;19932;-43
2023/07/06 07:56:43;;;;;;;;;;;19.90;99.90;;;;;;5031335;28;19925;-43
2023/07/06 07:59:11;;;;;;;;;;;19.90;99.90;;;;;;5006078;28;20369;-43
2023/07/06 08:01:38;;;;;;;;;;;20.00;99.90;;;;;;5022935;28;19964;-44
2023/07/06 08:04:05;;;;;;;;;;;20.10;99.90;;;;;;5023411;28;19979;-44
2023/07/06 08:06:32;;;;;;;;;;;20.20;99.90;;;;;;5009165;28;19925;-43
2023/07/06 08:08:58;;;;;;;;;;;20.40;99.90;;;;;;5007666;28;19929;-44
2023/07/06 08:11:25;;;;;;;;;;;20.50;99.90;;;;;;5015365;28;19933;-44
2023/07/06 08:13:53;;;;;;;;;;;20.50;99.90;;;;;;5022232;28;19925;-43
2023/07/06 08:16:21;;;;;;;;;;;20.50;99.90;;;;;;5026802;28;19984;-44
2023/07/06 08:18:49;;;;;;;;;;;20.60;99.90;;;;;;5003606;28;19932;-43
2023/07/06 08:21:15;;;;;;;;;;;20.70;99.90;;;;;;5004864;28;19956;-43
2023/07/06 08:23:47;;;;;;;;;;;20.70;99.90;;;;;;5024555;28;19925;-43
2023/07/06 08:26:14;;;;;;;;;;;20.90;99.90;;;;;;5027586;28;20392;-43
2023/07/06 08:28:40;;;;;;;;;;;21.00;99.90;;;;;;5022312;28;19925;-44
2023/07/06 08:31:12;;;;;;;;;;;21.00;99.90;;;;;;5022056;28;20373;-44
2023/07/06 08:33:40;;;;;;;;;;;21.20;99.90;;;;;;5012793;28;19925;-42
2023/07/06 08:36:07;;;;;;;;;;;21.20;99.90;;;;;;5018207;28;20352;-43
2023/07/06 08:38:36;;;;;;;;;;;21.20;99.90;;;;;;5023853;28;19929;-43
2023/07/06 08:41:03;;;;;;;;;;;21.30;99.90;;;;;;5009234;28;19926;-42
2023/07/06 08:43:31;;;;;;;;;;;21.30;99.90;;;;;;5015730;28;19964;-43
2023/07/06 08:46:00;;;;;;;;;;;21.50;99.90;;;;;;5012025;28;20468;-43
2023/07/06 08:48:27;;;;;;;;;;;21.60;99.90;;;;;;5013213;28;20019;-43
2023/07/06 08:50:56;;;;;;;;;;;21.70;99.90;;;;;;5013043;28;20417;-43
2023/07/06 08:53:26;;;;;;;;;;;21.90;99.90;;;;;;5030579;28;19972;-41
2023/07/06 08:55:52;;;;;;;;;;;22.20;99.90;;;;;;5029501;28;19932;-44
2023/07/06 08:58:22;;;;;;;;;;;22.40;99.90;;;;;;5026009;28;19936;-44
2023/07/06 09:00:48;;;;;;;;;;;22.60;99.90;;;;;;5019137;28;19925;-43
2023/07/06 09:03:15;;;;;;;;;;;22.80;99.90;;;;;;5029125;28;19932;-43
2023/07/06 09:05:42;;;;;;;;;;;22.80;99.90;;;;;;5029151;28;20365;-43
2023/07/06 09:08:11;;;;;;;;;;;22.80;99.90;;;;;;5011969;28;19926;-44
2023/07/06 09:10:38;;;;;;;;;;;22.90;99.90;;;;;;5030213;28;19925;-43
2023/07/06 09:13:13;;;;;;;;;;;23.00;99.90;;;;;;5030477;28;19925;-44
2023/07/06 09:15:40;;;;;;;;;;;23.10;98.80;;;;;;5013062;28;19931;-42
2023/07/06 09:18:06;;;;;;;;;;;23.20;99.00;;;;;;5011376;28;19977;-42
2023/07/06 09:20:33;;;;;;;;;;;23.20;98.00;;;;;;5009958;28;19933;-43
2023/07/06 09:23:00;;;;;;;;;;;23.10;95.40;;;;;;5024900;28;19971;-43
2023/07/06 09:25:29;;;;;;;;;;;23.20;98.20;;;;;;5028601;28;19926;-43
2023/07/06 09:27:56;;;;;;;;;;;23.30;96.90;;;;;;5022638;28;19937;-43
2023/07/06 09:30:25;;;;;;;;;;;23.30;94.90;;;;;;5000849;28;19929;-43
2023/07/06 09:32:54;;;;;;;;;;;23.30;97.50;;;;;;5016669;28;19932;-42
2023/07/06 09:35:20;;;;;;;;;;;23.50;98.00;;;;;;5027857;28;19971;-44
2023/07/06 09:37:47;;;;;;;;;;;23.60;94.40;;;;;;5010905;28;19968;-43
2023/07/06 09:40:14;;;;;;;;;;;23.60;95.90;;;;;;5006783;28;19925;-42
2023/07/06 09:42:43;;;;;;;;;;;23.70;96.00;;;;;;5020311;28;19929;-43
2023/07/06 09:45:16;;;;;;;;;;;23.70;95.00;;;;;;5025869;28;19925;-43
2023/07/06 09:47:43;;;;;;;;;;;23.60;96.00;;;;;;5022679;28;19932;-43
2023/07/06 09:50:15;;;;;;;;;;;23.50;95.30;;;;;;4988762;28;19925;-42
2023/07/06 09:52:41;;;;;;;;;;;23.30;96.70;;;;;;4970768;28;19926;-43
2023/07/06 09:55:25;;;;;;;;;;;23.30;97.60;;;;;;5002225;28;20413;-43
2023/07/06 09:57:53;;;;;;;;;;;23.20;98.50;;;;;;5008408;28;20012;-42
2023/07/06 10:00:22;;;;;;;;;;;23.10;94.80;;;;;;5027329;28;19931;-43
2023/07/06 10:02:52;;;;;;;;;;;23.00;97.50;;;;;;5029792;28;19958;-43
2023/07/06 10:05:21;;;;;;;;;;;22.90;96.90;;;;;;5000690;28;19933;-43
2023/07/06 10:07:49;;;;;;;;;;;22.80;96.60;;;;;;4996387;28;19933;-43
2023/07/06 10:10:16;;;;;;;;;;;22.70;96.10;;;;;;5026508;28;20300;-43
2023/07/06 10:12:44;;;;;;;;;;;22.60;97.70;;;;;;5029007;28;20001;-43
2023/07/06 10:15:16;;;;;;;;;;;22.60;99.10;;;;;;4996825;28;20374;-43
2023/07/06 10:17:43;;;;;;;;;;;22.50;97.50;;;;;;5014960;28;19925;-43
2023/07/06 10:20:12;;;;;;;;;;;22.60;99.00;;;;;;5023074;28;20142;-43
2023/07/06 10:22:41;;;;;;;;;;;22.80;98.60;;;;;;4976347;28;19926;-43
2023/07/06 10:25:14;;;;;;;;;;;23.10;98.70;;;;;;5025463;28;19925;-43
2023/07/06 10:27:43;;;;;;;;;;;23.30;97.60;;;;;;5030026;28;19925;-44
2023/07/06 10:30:12;;;;;;;;;;;23.60;96.90;;;;;;5028280;28;19925;-43
2023/07/06 10:32:41;;;;;;;;;;;23.70;95.40;;;;;;5027922;28;20278;-43
2023/07/06 10:35:10;;;;;;;;;;;23.80;95.50;;;;;;5002776;28;19925;-43
2023/07/06 10:37:36;;;;;;;;;;;23.90;95.30;;;;;;5010846;28;19929;-42
2023/07/06 10:40:05;;;;;;;;;;;24.00;94.90;;;;;;5007603;28;19929;-43
2023/07/06 10:42:32;;;;;;;;;;;24.30;95.60;;;;;;5013777;28;20403;-44
2023/07/06 10:44:59;;;;;;;;;;;24.50;95.40;;;;;;5013507;28;19933;-43
2023/07/06 10:47:40;;;;;;;;;;;24.70;91.30;;;;;;5000601;28;19925;-43
2023/07/06 10:50:13;;;;;;;;;;;25.00;92.60;;;;;;5013138;28;19983;-44
2023/07/06 10:52:40;;;;;;;;;;;25.10;87.90;;;;;;5014068;28;19988;-43
2023/07/06 10:55:10;;;;;;;;;;;25.00;91.60;;;;;;5030964;28;19926;-44
2023/07/06 10:57:37;;;;;;;;;;;24.90;90.50;;;;;;5018615;28;19948;-44
2023/07/06 11:00:13;;;;;;;;;;;24.60;91.70;;;;;;5014697;28;19977;-43
2023/07/06 11:02:43;;;;;;;;;;;24.60;93.10;;;;;;5030330;28;19937;-42
2023/07/06 11:05:10;;;;;;;;;;;24.70;93.80;;;;;;5016475;28;20416;-43
2023/07/06 11:07:38;;;;;;;;;;;24.70;91.70;;;;;;5023420;28;19925;-44
2023/07/06 11:10:24;;;;;;;;;;;24.60;92.40;;;;;;5029906;28;20020;-43
2023/07/06 11:12:52;;;;;;;;;;;24.60;93.50;;;;;;5025650;28;19925;-42
2023/07/06 11:15:21;;;;;;;;;;;24.70;92.50;;;;;;5016555;28;19929;-44
2023/07/06 11:17:50;;;;;;;;;;;24.90;91.30;;;;;;5019999;28;20017;-44
2023/07/06 11:20:18;;;;;;;;;;;24.80;91.20;;;;;;5030976;28;20433;-43
2023/07/06 11:22:46;;;;;;;;;;;24.70;89.20;;;;;;5007090;28;20349;-44
2023/07/06 11:25:13;;;;;;;;;;;24.50;86.40;;;;;;5034073;28;19932;-44
2023/07/06 11:27:43;;;;;;;;;;;24.50;90.30;;;;;;5017897;28;19925;-43
2023/07/06 11:30:14;;;;;;;;;;;24.70;89.30;;;;;;5025656;28;19925;-44
2023/07/06 11:32:44;;;;;;;;;;;24.90;87.90;;;;;;5033596;28;19932;-44
2023/07/06 11:35:18;;;;;;;;;;;25.20;80.40;;;;;;5030441;28;19933;-44
2023/07/06 11:37:48;;;;;;;;;;;25.20;80.20;;;;;;5021946;28;20008;-44
2023/07/06 11:40:19;;;;;;;;;;;25.20;88.40;;;;;;5032823;28;19925;-44
2023/07/06 11:43:03;;;;;;;;;;;25.30;87.70;;;;;;5004778;28;19932;-43
2023/07/06 11:45:32;;;;;;;;;;;25.30;86.20;;;;;;4996100;28;20368;-44
2023/07/06 11:48:02;;;;;;;;;;;25.50;85.80;;;;;;5033268;28;20024;-43
2023/07/06 11:50:34;;;;;;;;;;;25.50;79.00;;;;;;5011354;28;19930;-44
2023/07/06 11:53:09;;;;;;;;;;;25.50;81.60;;;;;;5014836;28;19926;-43
2023/07/06 11:55:50;;;;;;;;;;;25.60;80.00;;;;;;5023158;28;19960;-44
2023/07/06 11:58:28;;;;;;;;;;;25.70;84.60;;;;;;5001571;28;19964;-44
2023/07/06 12:00:56;;;;;;;;;;;25.60;75.80;;;;;;5012691;28;19948;-43
2023/07/06 12:03:26;;;;;;;;;;;25.60;81.70;;;;;;4991557;28;20013;-43
2023/07/06 12:05:55;;;;;;;;;;;25.70;80.80;;;;;;5030599;28;19936;-44
2023/07/06 12:08:27;;;;;;;;;;;25.80;81.80;;;;;;5031523;28;19936;-43
2023/07/06 12:10:56;;;;;;;;;;;25.80;78.60;;;;;;5032800;28;19976;-43
2023/07/06 12:13:25;;;;;;;;;;;25.80;79.10;;;;;;5011432;28;19926;-43
2023/07/06 12:15:54;;;;;;;;;;;25.80;79.60;;;;;;5001906;28;19925;-43
2023/07/06 12:18:23;;;;;;;;;;;25.60;80.90;;;;;;5010289;28;19925;-45
2023/07/06 12:20:52;;;;;;;;;;;25.50;81.70;;;;;;5032837;28;20308;-43
2023/07/06 12:23:20;;;;;;;;;;;25.50;80.00;;;;;;5015466;28;19932;-44
2023/07/06 12:25:47;;;;;;;;;;;25.60;81.10;;;;;;5032909;28;19929;-45
2023/07/06 12:28:16;;;;;;;;;;;25.50;81.90;;;;;;5028113;28;19925;-43
2023/07/06 12:30:43;;;;;;;;;;;25.30;81.00;;;;;;5032793;28;19925;-44
2023/07/06 12:33:10;;;;;;;;;;;25.20;80.50;;;;;;5012750;28;19932;-44
2023/07/06 12:35:37;;;;;;;;;;;25.10;81.80;;;;;;5031150;28;20020;-44
2023/07/06 12:38:06;;;;;;;;;;;25.00;78.40;;;;;;5015912;28;19925;-43
2023/07/06 12:40:35;;;;;;;;;;;24.90;80.20;;;;;;5012870;28;20332;-44
2023/07/06 12:43:02;;;;;;;;;;;24.80;82.40;;;;;;5016130;28;19981;-43
2023/07/06 12:45:30;;;;;;;;;;;24.70;84.30;;;;;;5030541;28;19929;-44
2023/07/06 12:47:57;;;;;;;;;;;24.70;85.00;;;;;;5011476;28;19931;-45
2023/07/06 12:50:29;;;;;;;;;;;24.90;87.10;;;;;;5008025;28;19965;-44
2023/07/06 12:53:05;;;;;;;;;;;25.10;82.20;;;;;;5007300;28;19929;-44
2023/07/06 12:55:32;;;;;;;;;;;25.30;83.50;;;;;;5015035;28;19925;-44
2023/07/06 13:01:00;;;;;;;;;;;25.60;81.00;;;;;;5106957;27;19939;-34
2023/07/06 13:03:26;;;;;;;;;;;25.70;83.10;;;;;;5087764;28;19935;-35
2023/07/06 13:05:54;;;;;;;;;;;25.70;80.10;;;;;;5086731;28;20272;-35
2023/07/06 13:08:20;;;;;;;;;;;25.70;82.70;;;;;;5093323;28;19970;-37
2023/07/06 13:10:54;;;;;;;;;;;25.60;79.70;;;;;;5092954;28;19929;-36
2023/07/06 13:13:21;;;;;;;;;;;25.50;80.70;;;;;;5089363;28;20378;-35
2023/07/06 13:15:48;;;;;;;;;;;25.40;80.80;;;;;;5125035;27;19938;-35
2023/07/06 13:18:17;;;;;;;;;;;25.30;79.70;;;;;;5093827;28;19928;-35
2023/07/06 13:20:44;;;;;;;;;;;25.30;81.40;;;;;;5087238;28;19931;-36
2023/07/06 13:23:11;;;;;;;;;;;25.40;82.50;;;;;;5100223;28;19973;-36
2023/07/06 13:25:40;;;;;;;;;;;25.40;76.70;;;;;;5119451;28;20399;-36
2023/07/06 13:28:08;;;;;;;;;;;25.40;80.00;;;;;;5121139;28;20353;-36
2023/07/06 13:30:36;;;;;;;;;;;25.50;76.60;;;;;;5075827;28;19932;-36
2023/07/06 13:33:03;;;;;;;;;;;25.60;79.70;;;;;;5073240;28;19947;-33
2023/07/06 13:35:32;;;;;;;;;;;25.80;76.20;;;;;;5096707;28;19999;-35
2023/07/06 13:38:00;;;;;;;;;;;25.90;78.20;;;;;;5092544;28;19924;-34
2023/07/06 13:40:26;;;;;;;;;;;26.00;75.20;;;;;;5116809;27;19939;-34
2023/07/06 13:42:54;;;;;;;;;;;26.10;76.80;;;;;;5098462;28;19943;-36
2023/07/06 13:45:23;;;;;;;;;;;26.20;78.20;;;;;;5091548;28;19924;-36
2023/07/06 13:47:52;;;;;;;;;;;26.40;74.10;;;;;;5086250;28;19924;-35
2023/07/06 13:50:21;;;;;;;;;;;26.50;74.60;;;;;;5120245;27;19930;-36
2023/07/06 13:52:51;;;;;;;;;;;26.60;69.60;;;;;;5085204;28;19925;-36
2023/07/06 13:55:19;;;;;;;;;;;26.60;70.40;;;;;;5098048;28;19924;-36
2023/07/06 13:57:46;;;;;;;;;;;26.60;72.50;;;;;;5089789;28;19939;-36
2023/07/06 14:00:14;;;;;;;;;;;26.60;73.30;;;;;;5092756;28;19936;-36
2023/07/06 14:02:41;;;;;;;;;;;26.80;74.10;;;;;;5093936;28;19974;-36
2023/07/06 14:05:09;;;;;;;;;;;26.80;68.00;;;;;;5101332;28;19924;-36
2023/07/06 14:07:35;;;;;;;;;;;26.60;68.70;;;;;;5096669;28;19931;-35
2023/07/06 14:10:05;;;;;;;;;;;26.60;71.90;;;;;;5094304;28;19986;-36
2023/07/06 14:12:32;;;;;;;;;;;26.60;70.10;;;;;;5077331;28;19952;-35
2023/07/06 14:14:59;;;;;;;;;;;26.60;71.50;;;;;;5090013;28;19928;-35
2023/07/06 14:17:25;;;;;;;;;;;26.70;71.50;;;;;;5074972;28;19931;-37
2023/07/06 14:19:53;;;;;;;;;;;26.60;72.20;;;;;;5104142;28;20020;-36
2023/07/06 14:22:22;;;;;;;;;;;26.60;72.10;;;;;;5075178;28;19933;-34
2023/07/06 14:24:49;;;;;;;;;;;26.70;73.20;;;;;;5066179;28;19989;-34
2023/07/06 14:27:19;;;;;;;;;;;26.60;72.30;;;;;;5059567;28;19937;-36
2023/07/06 14:29:46;;;;;;;;;;;26.30;72.90;;;;;;5088253;28;20015;-37
2023/07/06 14:32:15;;;;;;;;;;;26.10;75.60;;;;;;5077931;28;19966;-37
2023/07/06 14:34:42;;;;;;;;;;;26.10;76.60;;;;;;5071990;28;19925;-36
2023/07/06 14:37:09;;;;;;;;;;;26.30;77.40;;;;;;5085484;28;19935;-36
2023/07/06 14:39:36;;;;;;;;;;;26.40;77.50;;;;;;5082911;28;19927;-36
2023/07/06 14:42:03;;;;;;;;;;;26.50;76.80;;;;;;5087133;28;19924;-36
2023/07/06 14:44:32;;;;;;;;;;;26.30;75.50;;;;;;5084025;28;19924;-37
2023/07/06 14:46:58;;;;;;;;;;;26.20;73.70;;;;;;5086425;28;19924;-37
2023/07/06 14:49:25;;;;;;;;;;;26.10;75.20;;;;;;5078730;28;19929;-37
2023/07/06 14:51:52;;;;;;;;;;;26.20;77.20;;;;;;5079615;28;19947;-35
2023/07/06 14:54:18;;;;;;;;;;;26.40;78.30;;;;;;5074850;28;19924;-37
2023/07/06 14:56:45;;;;;;;;;;;26.60;78.60;;;;;;5079187;28;19932;-37
2023/07/06 14:59:12;;;;;;;;;;;26.70;76.80;;;;;;5072943;28;19932;-36
2023/07/06 15:01:40;;;;;;;;;;;26.70;78.10;;;;;;5112162;27;19930;-36
2023/07/06 15:04:07;;;;;;;;;;;26.70;78.90;;;;;;5120741;27;19924;-36
2023/07/06 15:06:34;;;;;;;;;;;26.50;75.30;;;;;;5062281;28;19984;-36
2023/07/06 15:09:01;;;;;;;;;;;26.30;75.00;;;;;;5068715;28;19978;-37
2023/07/06 15:11:27;;;;;;;;;;;26.20;78.20;;;;;;5111491;27;19925;-35
2023/07/06 15:13:54;;;;;;;;;;;26.10;78.50;;;;;;5079439;28;19932;-34
2023/07/06 15:16:21;;;;;;;;;;;26.00;79.20;;;;;;5078590;28;19924;-37
2023/07/06 15:18:49;;;;;;;;;;;25.90;78.30;;;;;;5078800;28;19924;-36
2023/07/06 15:21:18;;;;;;;;;;;25.90;75.50;;;;;;5085849;28;19932;-36
2023/07/06 15:23:44;;;;;;;;;;;25.80;79.40;;;;;;5081588;28;19933;-36
2023/07/06 15:26:11;;;;;;;;;;;25.90;76.40;;;;;;5074563;28;20094;-37
2023/07/06 15:28:38;;;;;;;;;;;25.80;77.00;;;;;;5065680;28;19924;-36
2023/07/06 15:31:05;;;;;;;;;;;25.70;77.10;;;;;;5073389;28;19933;-34
2023/07/06 15:33:32;;;;;;;;;;;25.50;75.70;;;;;;5069040;28;19928;-33
2023/07/06 15:36:00;;;;;;;;;;;25.40;72.50;;;;;;5066964;28;19931;-33
2023/07/06 15:38:27;;;;;;;;;;;25.10;74.90;;;;;;5066205;28;20295;-34
2023/07/06 15:40:53;;;;;;;;;;;25.00;75.30;;;;;;5068245;28;19928;-36